sensor_id;sensor_type;location;lat;lon;timestamp;temperature;humidity
41720;DHT22;27405;53.316;-6.294;2022-11-15T00:00:09;12.10;99.90
41720;DHT22;27405;53.316;-6.294;2022-11-15T00:02:35;12.00;99.90
41720;DHT22;27405;53.316;-6.294;2022-11-15T00:05:00;12.10;99.90
41720;DHT22;27405;53.316;-6.294;2022-11-15T00:07:26;12.10;99.90
41720;DHT22;27405;53.316;-6.294;2022-11-15T00:09:52;12.10;99.90
41720;DHT22;27405;53.316;-6.294;2022-11-15T00:12:17;12.20;99.90
41720;DHT22;27405;53.316;-6.294;2022-11-15T00:14:43;12.10;99.90
41720;DHT22;27405;53.316;-6.294;2022-11-15T00:17:08;12.20;99.90
41720;DHT22;27405;53.316;-6.294;2022-11-15T00:19:34;12.20;99.90
41720;DHT22;27405;53.316;-6.294;2022-11-15T00:22:00;12.20;99.90
41720;DHT22;27405;53.316;-6.294;2022-11-15T00:24:26;12.20;99.90
41720;DHT22;27405;53.316;-6.294;2022-11-15T00:26:51;12.20;99.90
41720;DHT22;27405;53.316;-6.294;2022-11-15T00:29:17;12.20;99.90
41720;DHT22;27405;53.316;-6.294;2022-11-15T00:31:42;12.30;99.90
41720;DHT22;27405;53.316;-6.294;2022-11-15T00:34:09;12.30;99.90
41720;DHT22;27405;53.316;-6.294;2022-11-15T00:36:35;12.30;99.90
41720;DHT22;27405;53.316;-6.294;2022-11-15T00:39:04;12.30;99.90
41720;DHT22;27405;53.316;-6.294;2022-11-15T00:41:30;12.30;99.90
41720;DHT22;27405;53.316;-6.294;2022-11-15T00:43:56;12.30;99.90
41720;DHT22;27405;53.316;-6.294;2022-11-15T00:46:21;12.30;99.90
41720;DHT22;27405;53.316;-6.294;2022-11-15T00:48:47;12.40;99.90
41720;DHT22;27405;53.316;-6.294;2022-11-15T00:51:13;12.30;99.90
41720;DHT22;27405;53.316;-6.294;2022-11-15T00:53:38;12.30;99.90
41720;DHT22;27405;53.316;-6.294;2022-11-15T00:56:04;12.40;99.90
41720;DHT22;27405;53.316;-6.294;2022-11-15T00:58:30;12.40;99.90
41720;DHT22;27405;53.316;-6.294;2022-11-15T01:00:56;12.40;99.90
41720;DHT22;27405;53.316;-6.294;2022-11-15T01:03:22;12.40;99.90
41720;DHT22;27405;53.316;-6.294;2022-11-15T01:05:47;12.40;99.90
41720;DHT22;27405;53.316;-6.294;2022-11-15T01:08:14;12.50;99.90
41720;DHT22;27405;53.316;-6.294;2022-11-15T01:10:41;12.40;99.90
41720;DHT22;27405;53.316;-6.294;2022-11-15T01:13:07;12.50;99.90
41720;DHT22;27405;53.316;-6.294;2022-11-15T01:15:32;12.50;99.90
41720;DHT22;27405;53.316;-6.294;2022-11-15T01:17:58;12.50;99.90
41720;DHT22;27405;53.316;-6.294;2022-11-15T01:20:24;12.50;99.90
41720;DHT22;27405;53.316;-6.294;2022-11-15T01:22:49;12.50;99.90
41720;DHT22;27405;53.316;-6.294;2022-11-15T01:25:15;12.60;99.90
41720;DHT22;27405;53.316;-6.294;2022-11-15T01:27:40;12.50;99.90
41720;DHT22;27405;53.316;-6.294;2022-11-15T01:30:07;12.60;99.90
41720;DHT22;27405;53.316;-6.294;2022-11-15T01:32:33;12.50;99.90
41720;DHT22;27405;53.316;-6.294;2022-11-15T01:34:59;12.60;99.90
41720;DHT22;27405;53.316;-6.294;2022-11-15T01:37:24;12.60;99.90
41720;DHT22;27405;53.316;-6.294;2022-11-15T01:39:50;12.60;99.90
41720;DHT22;27405;53.316;-6.294;2022-11-15T01:42:16;12.60;99.90
41720;DHT22;27405;53.316;-6.294;2022-11-15T01:44:44;12.60;99.90
41720;DHT22;27405;53.316;-6.294;2022-11-15T01:47:21;12.70;99.90
41720;DHT22;27405;53.316;-6.294;2022-11-15T01:50:04;12.70;99.90
41720;DHT22;27405;53.316;-6.294;2022-11-15T01:52:32;12.70;99.90
41720;DHT22;27405;53.316;-6.294;2022-11-15T01:55:14;12.80;99.90
41720;DHT22;27405;53.316;-6.294;2022-11-15T01:57:42;12.80;99.90
41720;DHT22;27405;53.316;-6.294;2022-11-15T02:00:10;12.80;99.90
41720;DHT22;27405;53.316;-6.294;2022-11-15T02:02:36;12.80;99.90
41720;DHT22;27405;53.316;-6.294;2022-11-15T02:05:03;12.40;99.90
41720;DHT22;27405;53.316;-6.294;2022-11-15T02:07:30;12.00;99.90
41720;DHT22;27405;53.316;-6.294;2022-11-15T02:09:59;11.60;99.90
41720;DHT22;27405;53.316;-6.294;2022-11-15T02:12:27;11.30;99.90
41720;DHT22;27405;53.316;-6.294;2022-11-15T02:14:54;11.10;99.90
41720;DHT22;27405;53.316;-6.294;2022-11-15T02:23:03;10.70;99.90
41720;DHT22;27405;53.316;-6.294;2022-11-15T02:29:06;10.50;99.90
41720;DHT22;27405;53.316;-6.294;2022-11-15T02:40:37;10.40;99.90
41720;DHT22;27405;53.316;-6.294;2022-11-15T02:43:10;10.30;99.90
41720;DHT22;27405;53.316;-6.294;2022-11-15T02:46:04;10.30;99.90
41720;DHT22;27405;53.316;-6.294;2022-11-15T02:48:33;10.30;99.90
41720;DHT22;27405;53.316;-6.294;2022-11-15T02:51:00;10.30;99.90
41720;DHT22;27405;53.316;-6.294;2022-11-15T02:53:26;10.20;99.90
41720;DHT22;27405;53.316;-6.294;2022-11-15T02:55:53;10.20;99.90
41720;DHT22;27405;53.316;-6.294;2022-11-15T02:58:43;10.10;99.90
41720;DHT22;27405;53.316;-6.294;2022-11-15T03:06:28;10.00;99.90
41720;DHT22;27405;53.316;-6.294;2022-11-15T03:09:13;10.00;99.90
41720;DHT22;27405;53.316;-6.294;2022-11-15T03:11:49;10.00;99.90
41720;DHT22;27405;53.316;-6.294;2022-11-15T03:14:32;9.90;99.90
41720;DHT22;27405;53.316;-6.294;2022-11-15T03:17:16;9.90;99.90
41720;DHT22;27405;53.316;-6.294;2022-11-15T03:19:47;9.90;99.90
41720;DHT22;27405;53.316;-6.294;2022-11-15T03:22:22;9.80;99.90
41720;DHT22;27405;53.316;-6.294;2022-11-15T03:24:53;9.90;99.90
41720;DHT22;27405;53.316;-6.294;2022-11-15T03:27:22;9.80;99.90
41720;DHT22;27405;53.316;-6.294;2022-11-15T03:29:59;9.80;99.90
41720;DHT22;27405;53.316;-6.294;2022-11-15T03:32:28;9.90;99.90
41720;DHT22;27405;53.316;-6.294;2022-11-15T03:35:08;9.90;99.90
41720;DHT22;27405;53.316;-6.294;2022-11-15T03:40:06;9.90;99.90
41720;DHT22;27405;53.316;-6.294;2022-11-15T03:42:48;9.80;99.90
41720;DHT22;27405;53.316;-6.294;2022-11-15T03:45:19;9.80;99.90
41720;DHT22;27405;53.316;-6.294;2022-11-15T03:48:18;9.80;99.90
41720;DHT22;27405;53.316;-6.294;2022-11-15T03:50:45;9.70;99.90
41720;DHT22;27405;53.316;-6.294;2022-11-15T03:53:12;9.70;99.90
41720;DHT22;27405;53.316;-6.294;2022-11-15T03:55:38;9.70;99.90
41720;DHT22;27405;53.316;-6.294;2022-11-15T03:58:04;9.70;99.90
41720;DHT22;27405;53.316;-6.294;2022-11-15T04:00:30;9.70;99.90
41720;DHT22;27405;53.316;-6.294;2022-11-15T04:02:55;9.60;99.90
41720;DHT22;27405;53.316;-6.294;2022-11-15T04:05:21;9.60;99.90
41720;DHT22;27405;53.316;-6.294;2022-11-15T04:07:47;9.60;99.90
41720;DHT22;27405;53.316;-6.294;2022-11-15T04:10:13;9.60;99.90
41720;DHT22;27405;53.316;-6.294;2022-11-15T04:12:40;9.50;99.90
41720;DHT22;27405;53.316;-6.294;2022-11-15T04:15:18;9.50;99.90
41720;DHT22;27405;53.316;-6.294;2022-11-15T04:20:20;9.50;99.90
41720;DHT22;27405;53.316;-6.294;2022-11-15T04:23:16;9.40;99.90
41720;DHT22;27405;53.316;-6.294;2022-11-15T04:26:11;9.40;99.90
41720;DHT22;27405;53.316;-6.294;2022-11-15T04:28:37;9.40;99.90
41720;DHT22;27405;53.316;-6.294;2022-11-15T04:31:22;9.40;99.90
41720;DHT22;27405;53.316;-6.294;2022-11-15T04:33:47;9.40;99.90
41720;DHT22;27405;53.316;-6.294;2022-11-15T04:36:13;9.40;99.90
41720;DHT22;27405;53.316;-6.294;2022-11-15T04:38:58;9.40;99.90
41720;DHT22;27405;53.316;-6.294;2022-11-15T04:41:23;9.40;99.90
41720;DHT22;27405;53.316;-6.294;2022-11-15T04:43:49;9.40;99.90
41720;DHT22;27405;53.316;-6.294;2022-11-15T04:46:14;9.40;99.90
41720;DHT22;27405;53.316;-6.294;2022-11-15T04:48:40;9.40;99.90
41720;DHT22;27405;53.316;-6.294;2022-11-15T04:51:06;9.40;99.90
41720;DHT22;27405;53.316;-6.294;2022-11-15T04:53:31;9.40;99.90
41720;DHT22;27405;53.316;-6.294;2022-11-15T04:55:57;9.40;99.90
41720;DHT22;27405;53.316;-6.294;2022-11-15T04:58:23;9.40;99.90
41720;DHT22;27405;53.316;-6.294;2022-11-15T05:00:48;9.40;99.90
41720;DHT22;27405;53.316;-6.294;2022-11-15T05:03:14;9.40;99.90
41720;DHT22;27405;53.316;-6.294;2022-11-15T05:05:58;9.40;99.90
41720;DHT22;27405;53.316;-6.294;2022-11-15T05:08:24;9.40;99.90
41720;DHT22;27405;53.316;-6.294;2022-11-15T05:10:50;9.40;99.90
41720;DHT22;27405;53.316;-6.294;2022-11-15T05:13:16;9.40;99.90
41720;DHT22;27405;53.316;-6.294;2022-11-15T05:15:42;9.40;99.90
41720;DHT22;27405;53.316;-6.294;2022-11-15T05:18:07;9.40;99.90
41720;DHT22;27405;53.316;-6.294;2022-11-15T05:20:33;9.40;99.90
41720;DHT22;27405;53.316;-6.294;2022-11-15T05:22:59;9.40;99.90
41720;DHT22;27405;53.316;-6.294;2022-11-15T05:25:25;9.40;99.90
41720;DHT22;27405;53.316;-6.294;2022-11-15T05:27:51;9.40;99.90
41720;DHT22;27405;53.316;-6.294;2022-11-15T05:30:16;9.40;99.90
41720;DHT22;27405;53.316;-6.294;2022-11-15T05:32:43;9.40;99.90
41720;DHT22;27405;53.316;-6.294;2022-11-15T05:35:35;9.40;99.90
41720;DHT22;27405;53.316;-6.294;2022-11-15T05:37:57;9.40;99.90
41720;DHT22;27405;53.316;-6.294;2022-11-15T05:40:23;9.40;99.90
41720;DHT22;27405;53.316;-6.294;2022-11-15T05:42:49;9.40;99.90
41720;DHT22;27405;53.316;-6.294;2022-11-15T05:45:16;9.40;99.90
41720;DHT22;27405;53.316;-6.294;2022-11-15T05:47:42;9.40;99.90
41720;DHT22;27405;53.316;-6.294;2022-11-15T05:50:12;9.40;99.90
41720;DHT22;27405;53.316;-6.294;2022-11-15T05:52:38;9.30;99.90
41720;DHT22;27405;53.316;-6.294;2022-11-15T05:55:05;9.30;99.90
41720;DHT22;27405;53.316;-6.294;2022-11-15T05:57:31;9.30;99.90
41720;DHT22;27405;53.316;-6.294;2022-11-15T05:59:57;9.30;99.90
41720;DHT22;27405;53.316;-6.294;2022-11-15T06:02:23;9.20;99.90
41720;DHT22;27405;53.316;-6.294;2022-11-15T06:04:49;9.20;99.90
41720;DHT22;27405;53.316;-6.294;2022-11-15T06:07:14;9.20;99.90
41720;DHT22;27405;53.316;-6.294;2022-11-15T06:09:40;9.20;99.90
41720;DHT22;27405;53.316;-6.294;2022-11-15T06:12:06;9.20;99.90
41720;DHT22;27405;53.316;-6.294;2022-11-15T06:14:31;9.10;99.90
41720;DHT22;27405;53.316;-6.294;2022-11-15T06:16:57;9.10;99.90
41720;DHT22;27405;53.316;-6.294;2022-11-15T06:19:22;9.10;99.90
41720;DHT22;27405;53.316;-6.294;2022-11-15T06:21:48;9.10;99.90
41720;DHT22;27405;53.316;-6.294;2022-11-15T06:24:14;9.10;99.90
41720;DHT22;27405;53.316;-6.294;2022-11-15T06:26:39;9.10;99.90
41720;DHT22;27405;53.316;-6.294;2022-11-15T06:29:05;9.00;99.90
41720;DHT22;27405;53.316;-6.294;2022-11-15T06:31:31;9.00;99.90
41720;DHT22;27405;53.316;-6.294;2022-11-15T06:33:56;9.00;99.90
41720;DHT22;27405;53.316;-6.294;2022-11-15T06:36:22;9.00;99.90
41720;DHT22;27405;53.316;-6.294;2022-11-15T06:38:48;9.00;99.90
41720;DHT22;27405;53.316;-6.294;2022-11-15T06:41:14;9.00;99.90
41720;DHT22;27405;53.316;-6.294;2022-11-15T06:43:40;9.00;99.90
41720;DHT22;27405;53.316;-6.294;2022-11-15T06:46:07;9.00;99.90
41720;DHT22;27405;53.316;-6.294;2022-11-15T06:48:33;8.90;99.90
41720;DHT22;27405;53.316;-6.294;2022-11-15T06:51:00;8.90;99.90
41720;DHT22;27405;53.316;-6.294;2022-11-15T06:53:27;8.90;99.90
41720;DHT22;27405;53.316;-6.294;2022-11-15T06:55:53;8.90;99.90
41720;DHT22;27405;53.316;-6.294;2022-11-15T06:58:21;8.90;99.90
41720;DHT22;27405;53.316;-6.294;2022-11-15T07:00:46;8.90;99.90
41720;DHT22;27405;53.316;-6.294;2022-11-15T07:03:12;8.90;99.90
41720;DHT22;27405;53.316;-6.294;2022-11-15T07:05:37;8.90;99.90
41720;DHT22;27405;53.316;-6.294;2022-11-15T07:08:03;8.80;99.90
41720;DHT22;27405;53.316;-6.294;2022-11-15T07:10:29;8.80;99.90
41720;DHT22;27405;53.316;-6.294;2022-11-15T07:12:56;8.80;99.90
41720;DHT22;27405;53.316;-6.294;2022-11-15T07:15:24;8.70;99.90
41720;DHT22;27405;53.316;-6.294;2022-11-15T07:17:49;8.80;99.90
41720;DHT22;27405;53.316;-6.294;2022-11-15T07:20:16;8.70;99.90
41720;DHT22;27405;53.316;-6.294;2022-11-15T07:22:42;8.80;99.90
41720;DHT22;27405;53.316;-6.294;2022-11-15T07:25:09;8.70;99.90
41720;DHT22;27405;53.316;-6.294;2022-11-15T07:27:34;8.70;99.90
41720;DHT22;27405;53.316;-6.294;2022-11-15T07:30:00;8.70;99.90
41720;DHT22;27405;53.316;-6.294;2022-11-15T07:32:26;8.60;99.90
41720;DHT22;27405;53.316;-6.294;2022-11-15T07:34:52;8.70;99.90
41720;DHT22;27405;53.316;-6.294;2022-11-15T07:37:18;8.60;99.90
41720;DHT22;27405;53.316;-6.294;2022-11-15T07:39:44;8.60;99.90
41720;DHT22;27405;53.316;-6.294;2022-11-15T07:42:10;8.60;99.90
41720;DHT22;27405;53.316;-6.294;2022-11-15T07:44:54;8.60;99.90
41720;DHT22;27405;53.316;-6.294;2022-11-15T07:47:20;8.50;99.90
41720;DHT22;27405;53.316;-6.294;2022-11-15T07:49:46;8.50;99.90
41720;DHT22;27405;53.316;-6.294;2022-11-15T07:52:13;8.40;99.90
41720;DHT22;27405;53.316;-6.294;2022-11-15T07:54:39;8.40;99.90
41720;DHT22;27405;53.316;-6.294;2022-11-15T07:57:05;8.40;99.90
41720;DHT22;27405;53.316;-6.294;2022-11-15T07:59:32;8.30;99.90
41720;DHT22;27405;53.316;-6.294;2022-11-15T08:01:58;8.30;99.90
41720;DHT22;27405;53.316;-6.294;2022-11-15T08:04:24;8.30;99.90
41720;DHT22;27405;53.316;-6.294;2022-11-15T08:06:49;8.20;99.90
41720;DHT22;27405;53.316;-6.294;2022-11-15T08:09:15;8.20;99.90
41720;DHT22;27405;53.316;-6.294;2022-11-15T08:11:41;8.10;99.90
41720;DHT22;27405;53.316;-6.294;2022-11-15T08:14:06;8.10;99.90
41720;DHT22;27405;53.316;-6.294;2022-11-15T08:16:32;8.00;99.90
41720;DHT22;27405;53.316;-6.294;2022-11-15T08:18:58;8.00;99.90
41720;DHT22;27405;53.316;-6.294;2022-11-15T08:21:24;8.00;99.90
41720;DHT22;27405;53.316;-6.294;2022-11-15T08:23:49;8.00;99.90
41720;DHT22;27405;53.316;-6.294;2022-11-15T08:26:15;7.90;99.90
41720;DHT22;27405;53.316;-6.294;2022-11-15T08:28:41;7.90;99.90
41720;DHT22;27405;53.316;-6.294;2022-11-15T08:31:14;7.90;99.90
41720;DHT22;27405;53.316;-6.294;2022-11-15T08:33:40;7.80;99.90
41720;DHT22;27405;53.316;-6.294;2022-11-15T08:36:10;7.70;99.90
41720;DHT22;27405;53.316;-6.294;2022-11-15T08:38:37;7.70;99.90
41720;DHT22;27405;53.316;-6.294;2022-11-15T08:41:03;7.70;99.90
41720;DHT22;27405;53.316;-6.294;2022-11-15T08:43:29;7.70;99.90
41720;DHT22;27405;53.316;-6.294;2022-11-15T08:45:56;7.70;99.90
41720;DHT22;27405;53.316;-6.294;2022-11-15T08:48:22;7.70;99.90
41720;DHT22;27405;53.316;-6.294;2022-11-15T08:50:48;7.70;99.90
41720;DHT22;27405;53.316;-6.294;2022-11-15T08:53:13;7.70;99.90
41720;DHT22;27405;53.316;-6.294;2022-11-15T08:55:40;7.70;99.90
41720;DHT22;27405;53.316;-6.294;2022-11-15T08:58:06;7.70;99.90
41720;DHT22;27405;53.316;-6.294;2022-11-15T09:00:32;7.70;99.90
41720;DHT22;27405;53.316;-6.294;2022-11-15T09:02:58;7.70;99.90
41720;DHT22;27405;53.316;-6.294;2022-11-15T09:05:24;7.80;99.90
41720;DHT22;27405;53.316;-6.294;2022-11-15T09:07:53;7.80;99.90
41720;DHT22;27405;53.316;-6.294;2022-11-15T09:10:20;7.80;99.90
41720;DHT22;27405;53.316;-6.294;2022-11-15T09:12:46;7.80;99.90
41720;DHT22;27405;53.316;-6.294;2022-11-15T09:15:14;7.80;99.90
41720;DHT22;27405;53.316;-6.294;2022-11-15T09:17:40;7.80;99.90
41720;DHT22;27405;53.316;-6.294;2022-11-15T09:20:06;7.80;99.90
41720;DHT22;27405;53.316;-6.294;2022-11-15T09:22:32;7.80;99.90
41720;DHT22;27405;53.316;-6.294;2022-11-15T09:24:58;7.80;99.90
41720;DHT22;27405;53.316;-6.294;2022-11-15T09:27:28;7.80;99.90
41720;DHT22;27405;53.316;-6.294;2022-11-15T09:29:54;7.80;99.90
41720;DHT22;27405;53.316;-6.294;2022-11-15T09:32:19;7.90;99.90
41720;DHT22;27405;53.316;-6.294;2022-11-15T09:34:45;7.90;99.90
41720;DHT22;27405;53.316;-6.294;2022-11-15T09:37:11;8.00;99.90
41720;DHT22;27405;53.316;-6.294;2022-11-15T09:39:37;8.00;99.90
41720;DHT22;27405;53.316;-6.294;2022-11-15T09:50:01;8.20;99.90
41720;DHT22;27405;53.316;-6.294;2022-11-15T09:52:27;8.20;99.90
41720;DHT22;27405;53.316;-6.294;2022-11-15T09:54:53;8.30;99.90
41720;DHT22;27405;53.316;-6.294;2022-11-15T10:03:30;8.50;99.90
41720;DHT22;27405;53.316;-6.294;2022-11-15T10:05:25;8.60;99.90
41720;DHT22;27405;53.316;-6.294;2022-11-15T10:08:12;8.80;99.90
41720;DHT22;27405;53.316;-6.294;2022-11-15T10:10:41;8.90;99.90
41720;DHT22;27405;53.316;-6.294;2022-11-15T10:13:16;9.00;99.90
41720;DHT22;27405;53.316;-6.294;2022-11-15T10:15:46;9.10;99.90
41720;DHT22;27405;53.316;-6.294;2022-11-15T10:18:19;9.20;99.90
41720;DHT22;27405;53.316;-6.294;2022-11-15T10:20:49;9.30;99.90
41720;DHT22;27405;53.316;-6.294;2022-11-15T10:23:21;9.40;99.90
41720;DHT22;27405;53.316;-6.294;2022-11-15T10:25:47;9.40;99.90
41720;DHT22;27405;53.316;-6.294;2022-11-15T10:30:49;9.60;99.90
41720;DHT22;27405;53.316;-6.294;2022-11-15T10:33:37;9.60;99.90
41720;DHT22;27405;53.316;-6.294;2022-11-15T10:46:45;9.40;99.90
41720;DHT22;27405;53.316;-6.294;2022-11-15T10:49:39;9.50;99.90
41720;DHT22;27405;53.316;-6.294;2022-11-15T10:52:19;9.50;99.90
41720;DHT22;27405;53.316;-6.294;2022-11-15T10:54:50;9.50;99.90
41720;DHT22;27405;53.316;-6.294;2022-11-15T10:57:25;9.50;99.90
41720;DHT22;27405;53.316;-6.294;2022-11-15T10:59:57;9.50;99.90
41720;DHT22;27405;53.316;-6.294;2022-11-15T11:02:28;9.50;99.90
41720;DHT22;27405;53.316;-6.294;2022-11-15T11:04:54;9.50;99.90
41720;DHT22;27405;53.316;-6.294;2022-11-15T11:07:23;9.50;99.90
41720;DHT22;27405;53.316;-6.294;2022-11-15T11:09:58;9.50;99.90
41720;DHT22;27405;53.316;-6.294;2022-11-15T11:12:32;9.60;99.90
41720;DHT22;27405;53.316;-6.294;2022-11-15T11:14:59;9.60;99.90
41720;DHT22;27405;53.316;-6.294;2022-11-15T11:25:47;9.70;99.90
41720;DHT22;27405;53.316;-6.294;2022-11-15T11:39:29;9.80;99.90
41720;DHT22;27405;53.316;-6.294;2022-11-15T11:42:17;9.80;99.90
41720;DHT22;27405;53.316;-6.294;2022-11-15T11:45:18;9.80;99.90
41720;DHT22;27405;53.316;-6.294;2022-11-15T11:47:58;9.80;99.90
41720;DHT22;27405;53.316;-6.294;2022-11-15T11:50:28;9.90;99.90
41720;DHT22;27405;53.316;-6.294;2022-11-15T11:55:34;9.90;99.90
41720;DHT22;27405;53.316;-6.294;2022-11-15T12:01:14;9.90;99.90
41720;DHT22;27405;53.316;-6.294;2022-11-15T12:04:15;9.90;99.90
41720;DHT22;27405;53.316;-6.294;2022-11-15T12:06:47;9.90;99.90
41720;DHT22;27405;53.316;-6.294;2022-11-15T12:11:50;10.00;99.90
41720;DHT22;27405;53.316;-6.294;2022-11-15T12:16:51;10.10;99.90
41720;DHT22;27405;53.316;-6.294;2022-11-15T12:19:17;10.10;99.90
41720;DHT22;27405;53.316;-6.294;2022-11-15T12:22:06;10.10;99.90
41720;DHT22;27405;53.316;-6.294;2022-11-15T12:24:38;10.20;99.90
41720;DHT22;27405;53.316;-6.294;2022-11-15T12:27:34;10.20;99.90
41720;DHT22;27405;53.316;-6.294;2022-11-15T12:30:04;10.20;99.90
41720;DHT22;27405;53.316;-6.294;2022-11-15T12:32:39;10.20;99.90
41720;DHT22;27405;53.316;-6.294;2022-11-15T12:35:42;10.20;99.90
41720;DHT22;27405;53.316;-6.294;2022-11-15T12:38:10;10.20;99.90
41720;DHT22;27405;53.316;-6.294;2022-11-15T12:40:38;10.30;99.90
41720;DHT22;27405;53.316;-6.294;2022-11-15T12:45:42;10.30;99.90
41720;DHT22;27405;53.316;-6.294;2022-11-15T13:14:41;10.30;99.90
41720;DHT22;27405;53.316;-6.294;2022-11-15T13:30:32;10.30;99.90
41720;DHT22;27405;53.316;-6.294;2022-11-15T13:33:08;10.30;99.90
41720;DHT22;27405;53.316;-6.294;2022-11-15T13:35:39;10.40;99.90
41720;DHT22;27405;53.316;-6.294;2022-11-15T13:38:06;10.30;99.90
41720;DHT22;27405;53.316;-6.294;2022-11-15T13:40:37;10.30;99.90
41720;DHT22;27405;53.316;-6.294;2022-11-15T13:48:45;10.40;99.90
41720;DHT22;27405;53.316;-6.294;2022-11-15T13:56:49;10.40;99.90
41720;DHT22;27405;53.316;-6.294;2022-11-15T14:00:24;10.40;99.90
41720;DHT22;27405;53.316;-6.294;2022-11-15T14:02:34;10.50;99.90
41720;DHT22;27405;53.316;-6.294;2022-11-15T14:05:14;10.50;99.90
41720;DHT22;27405;53.316;-6.294;2022-11-15T14:07:59;10.50;99.90
41720;DHT22;27405;53.316;-6.294;2022-11-15T14:10:31;10.50;99.90
41720;DHT22;27405;53.316;-6.294;2022-11-15T14:12:58;10.50;99.90
41720;DHT22;27405;53.316;-6.294;2022-11-15T14:15:34;10.50;99.90
41720;DHT22;27405;53.316;-6.294;2022-11-15T14:18:01;10.60;99.90
41720;DHT22;27405;53.316;-6.294;2022-11-15T14:20:35;10.60;99.90
41720;DHT22;27405;53.316;-6.294;2022-11-15T14:23:25;10.60;99.90
41720;DHT22;27405;53.316;-6.294;2022-11-15T14:25:56;10.60;99.90
41720;DHT22;27405;53.316;-6.294;2022-11-15T14:30:48;10.60;99.90
41720;DHT22;27405;53.316;-6.294;2022-11-15T14:33:25;10.60;99.90
41720;DHT22;27405;53.316;-6.294;2022-11-15T14:35:54;10.60;99.90
41720;DHT22;27405;53.316;-6.294;2022-11-15T14:38:21;10.60;99.90
41720;DHT22;27405;53.316;-6.294;2022-11-15T14:40:47;10.50;99.90
41720;DHT22;27405;53.316;-6.294;2022-11-15T14:43:13;10.60;99.90
41720;DHT22;27405;53.316;-6.294;2022-11-15T14:45:39;10.60;99.90
41720;DHT22;27405;53.316;-6.294;2022-11-15T14:48:06;10.50;99.90
41720;DHT22;27405;53.316;-6.294;2022-11-15T14:50:33;10.50;99.90
41720;DHT22;27405;53.316;-6.294;2022-11-15T14:52:59;10.50;99.90
41720;DHT22;27405;53.316;-6.294;2022-11-15T14:55:27;10.50;99.90
41720;DHT22;27405;53.316;-6.294;2022-11-15T14:57:54;10.50;99.90
41720;DHT22;27405;53.316;-6.294;2022-11-15T15:00:21;10.50;99.90
41720;DHT22;27405;53.316;-6.294;2022-11-15T15:02:47;10.40;99.90
41720;DHT22;27405;53.316;-6.294;2022-11-15T15:05:17;10.40;99.90
41720;DHT22;27405;53.316;-6.294;2022-11-15T15:07:44;10.40;99.90
41720;DHT22;27405;53.316;-6.294;2022-11-15T15:10:11;10.30;99.90
41720;DHT22;27405;53.316;-6.294;2022-11-15T15:12:37;10.30;99.90
41720;DHT22;27405;53.316;-6.294;2022-11-15T15:15:03;10.30;99.90
41720;DHT22;27405;53.316;-6.294;2022-11-15T15:17:29;10.30;99.90
41720;DHT22;27405;53.316;-6.294;2022-11-15T15:19:54;10.30;99.90
41720;DHT22;27405;53.316;-6.294;2022-11-15T15:22:20;10.30;99.90
41720;DHT22;27405;53.316;-6.294;2022-11-15T15:24:50;10.30;99.90
41720;DHT22;27405;53.316;-6.294;2022-11-15T15:27:16;10.30;99.90
41720;DHT22;27405;53.316;-6.294;2022-11-15T15:29:42;10.20;99.90
41720;DHT22;27405;53.316;-6.294;2022-11-15T15:32:09;10.20;99.90
41720;DHT22;27405;53.316;-6.294;2022-11-15T15:34:35;10.20;99.90
41720;DHT22;27405;53.316;-6.294;2022-11-15T15:37:23;10.20;99.90
41720;DHT22;27405;53.316;-6.294;2022-11-15T15:39:55;10.20;99.90
41720;DHT22;27405;53.316;-6.294;2022-11-15T15:42:21;10.20;99.90
41720;DHT22;27405;53.316;-6.294;2022-11-15T15:44:48;10.10;99.90
41720;DHT22;27405;53.316;-6.294;2022-11-15T15:47:17;10.10;99.90
41720;DHT22;27405;53.316;-6.294;2022-11-15T15:49:43;10.10;99.90
41720;DHT22;27405;53.316;-6.294;2022-11-15T15:52:09;10.10;99.90
41720;DHT22;27405;53.316;-6.294;2022-11-15T15:54:35;10.10;99.90
41720;DHT22;27405;53.316;-6.294;2022-11-15T15:57:01;10.10;99.90
41720;DHT22;27405;53.316;-6.294;2022-11-15T15:59:26;10.10;99.90
41720;DHT22;27405;53.316;-6.294;2022-11-15T16:01:52;10.00;99.90
41720;DHT22;27405;53.316;-6.294;2022-11-15T16:04:18;9.90;99.90
41720;DHT22;27405;53.316;-6.294;2022-11-15T16:06:44;9.90;99.90
41720;DHT22;27405;53.316;-6.294;2022-11-15T16:09:17;9.90;99.90
41720;DHT22;27405;53.316;-6.294;2022-11-15T16:11:44;9.80;99.90
41720;DHT22;27405;53.316;-6.294;2022-11-15T16:14:10;9.70;99.90
41720;DHT22;27405;53.316;-6.294;2022-11-15T16:16:37;9.70;99.90
41720;DHT22;27405;53.316;-6.294;2022-11-15T16:19:03;9.60;99.90
41720;DHT22;27405;53.316;-6.294;2022-11-15T16:21:29;9.60;99.90
41720;DHT22;27405;53.316;-6.294;2022-11-15T16:23:55;9.50;99.90
41720;DHT22;27405;53.316;-6.294;2022-11-15T16:26:26;9.50;99.90
41720;DHT22;27405;53.316;-6.294;2022-11-15T16:28:52;9.40;99.90
41720;DHT22;27405;53.316;-6.294;2022-11-15T16:31:19;9.40;99.90
41720;DHT22;27405;53.316;-6.294;2022-11-15T16:33:48;9.40;99.90
41720;DHT22;27405;53.316;-6.294;2022-11-15T16:36:20;9.30;99.90
41720;DHT22;27405;53.316;-6.294;2022-11-15T16:38:47;9.30;99.90
41720;DHT22;27405;53.316;-6.294;2022-11-15T16:41:13;9.20;99.90
41720;DHT22;27405;53.316;-6.294;2022-11-15T16:43:39;9.20;99.90
41720;DHT22;27405;53.316;-6.294;2022-11-15T16:46:17;9.20;99.90
41720;DHT22;27405;53.316;-6.294;2022-11-15T16:48:44;9.10;99.90
41720;DHT22;27405;53.316;-6.294;2022-11-15T16:51:09;9.10;99.90
41720;DHT22;27405;53.316;-6.294;2022-11-15T16:53:35;9.00;99.90
41720;DHT22;27405;53.316;-6.294;2022-11-15T16:56:01;9.00;99.90
41720;DHT22;27405;53.316;-6.294;2022-11-15T16:58:27;9.00;99.90
41720;DHT22;27405;53.316;-6.294;2022-11-15T17:00:54;9.00;99.90
41720;DHT22;27405;53.316;-6.294;2022-11-15T17:03:23;8.90;99.90
41720;DHT22;27405;53.316;-6.294;2022-11-15T17:05:50;8.90;99.90
41720;DHT22;27405;53.316;-6.294;2022-11-15T17:08:16;8.90;99.90
41720;DHT22;27405;53.316;-6.294;2022-11-15T17:10:42;8.80;99.90
41720;DHT22;27405;53.316;-6.294;2022-11-15T17:13:12;8.80;99.90
41720;DHT22;27405;53.316;-6.294;2022-11-15T17:15:38;8.80;99.90
41720;DHT22;27405;53.316;-6.294;2022-11-15T17:18:04;8.80;99.90
41720;DHT22;27405;53.316;-6.294;2022-11-15T17:20:31;8.80;99.90
41720;DHT22;27405;53.316;-6.294;2022-11-15T17:22:56;8.80;99.90
41720;DHT22;27405;53.316;-6.294;2022-11-15T17:25:22;8.80;99.90
41720;DHT22;27405;53.316;-6.294;2022-11-15T17:27:48;8.90;99.90
41720;DHT22;27405;53.316;-6.294;2022-11-15T17:30:14;8.90;99.90
41720;DHT22;27405;53.316;-6.294;2022-11-15T17:32:41;8.90;99.90
41720;DHT22;27405;53.316;-6.294;2022-11-15T17:35:08;8.90;99.90
41720;DHT22;27405;53.316;-6.294;2022-11-15T17:37:35;8.90;99.90
41720;DHT22;27405;53.316;-6.294;2022-11-15T17:40:01;8.90;99.90
41720;DHT22;27405;53.316;-6.294;2022-11-15T17:42:27;8.90;99.90
41720;DHT22;27405;53.316;-6.294;2022-11-15T17:44:53;8.90;99.90
41720;DHT22;27405;53.316;-6.294;2022-11-15T17:47:18;8.80;99.90
41720;DHT22;27405;53.316;-6.294;2022-11-15T17:49:44;8.90;99.90
41720;DHT22;27405;53.316;-6.294;2022-11-15T17:52:09;8.80;99.90
41720;DHT22;27405;53.316;-6.294;2022-11-15T17:54:35;8.80;99.90
41720;DHT22;27405;53.316;-6.294;2022-11-15T17:57:01;8.80;99.90